Ailey, GA

12:30 PM EDT on October 02, 2014 (GMT -0400)
Vidalia Municipal | Change Station
CLOSE
Current Station
Airport
Location: Vidalia,
Elevation: 276 ft
Nearby Weather Stations

Elev 276 ft 32.19 °N, 82.37 °W | Updated 15 minutes ago

Clear
Clear
82 °F
Feels Like 84 °F
N
0
Wind Variable Wind from North

Today
High -- | Low -- °F
--% Chance of Precip.
Yesterday
High -- | Low -- °F
Precip. -- in
7:24 AM 7:13 PM
First Quarter, 60% visible
Pressure 30.11 in
Visibility 10.0 miles
Clouds Clear
Heat Index 84 °F
Dew Point 64 °F
Humidity 54%
Rainfall 0.00 in
Snow Depth Not available.
UV 8 out of 12
Pollen 6.90 out of 12
Air Quality Not available.
Flu Activity Not available.
METAR KVDI 021615Z AUTO 00000KT 10SM CLR 28/18 A3011 RMK AO2

More Conditions Fewer Conditions

Pressure 30.11 in
Visibility 10.0 miles
Clouds Clear
Heat Index 84 °F
Dew Point 64 °F
Humidity 54%
Rainfall 0.00 in
Snow Depth Not available.
UV 8 out of 12
Pollen 6.90 out of 12
Air Quality Not available.
Flu Activity Not available.
METAR KVDI 021615Z AUTO 00000KT 10SM CLR 28/18 A3011 RMK AO2

More Conditions Fewer Conditions

10-Day Weather Forecast

Almanac

Astronomy

Oct. 02, 2014 Rise Set
Actual Time 7:24 AM EDT 7:13 PM EDT
Civil Twilight 7:00 AM EDT 7:37 PM EDT
Nautical Twilight 6:31 AM EDT 8:06 PM EDT
Astronomical Twilight 6:03 AM EDT 8:34 PM EDT
Moon 3:00 PM EDT 12:59 AM EDT
Length of Visible Light 12h 37m
Length of Day
11h 48m
Tomorrow will be 1m 57s shorter.
First Quarter, 60% of the Moon is Illuminated
Today
First Quarter
Oct 8
Full
Oct 15
Last Quarter
Oct 23
New
Oct 30
First Quarter

Today's Extremes

State Highs State Lows

Community

WunderPhotos

Upload Photos

1,758,294 photos uploaded!

WunderBlogs® & News

Nearby

Snow Depth

Station Depth Elevation
No new snow has been reported.

Earthquake Activity

City Distance Mag. Time & Date
No recent earthquake activity has been reported nearby.
Minimum magnitude displayed is 2.5.

Coastal Water Temperatures

Place Temperature
No Stations Reporting

Nearby Weather Stations